Falken — SBCH — position and weather

sailwx.info

Track history (hours):
 
Tides and Currents Weather Stations Pressure Air Temp Water Temp Dewpoint Dewpoint Depression Visibility Wind Speed Wind Dir Waves Ship Positions

Falken (Sweden)

Last reported at 2016-May-29 11:33 UTC. Time now 2016-May-29 11:33 UTC.
Position N 58°04' E 011°15'.

Length 40 m; draft 4.2 m.

Type: Sailing vessel. MMSI: 265070000.

Date/timePositionNaut miles runAvg speedWind from/ knotsBaromVisibWave heightAir tempDewpointWater temp
2016-May-29 11:33N 58°04' E 011°15'4 3.9
2016-May-29 10:34N 58°01' E 011°20'7 6.7
2016-May-29 09:34N 57°57' E 011°30'5 5.3
2016-May-29 08:34N 57°55' E 011°39'1 0.6
2016-May-29 07:32N 57°55' E 011°40'0 0.0
2016-May-29 06:29N 57°55' E 011°40'0 0.0
2016-May-29 05:32N 57°55' E 011°40'0 0.0
2016-May-29 04:32N 57°55' E 011°40'0 0.0
2016-May-29 03:32N 57°55' E 011°40'0 0.0
2016-May-29 02:29N 57°55' E 011°40'0 0.0
2016-May-29 01:32N 57°55' E 011°40'0 0.0
2016-May-29 00:29N 57°55' E 011°40'0 0.0
2016-May-28 23:32N 57°55' E 011°40'0 0.0
2016-May-28 22:26N 57°55' E 011°40'0 0.0
2016-May-28 21:32N 57°55' E 011°40'0 0.0
2016-May-28 20:32N 57°55' E 011°40'0 0.0
2016-May-28 19:32N 57°55' E 011°40'0 0.0
2016-May-28 18:32N 57°55' E 011°40'0 0.0
2016-May-28 17:32N 57°55' E 011°40'0 0.0
2016-May-28 16:32N 57°55' E 011°40'0 0.0
2016-May-28 15:32N 57°55' E 011°40'3 2.9
2016-May-28 14:33N 57°55' E 011°35'4 3.9
2016-May-28 13:33N 57°52' E 011°30'7 6.5
2016-May-28 12:33N 57°45' E 011°32'4 3.8
2016-May-28 11:34N 57°46' E 011°39'0 0.0
2016-May-28 10:32N 57°46' E 011°39'0 0.0
2016-May-28 09:32N 57°46' E 011°39'0 0.0
2016-May-28 08:32N 57°46' E 011°39'0 0.0
2016-May-28 07:32N 57°46' E 011°39'0 0.0
2016-May-28 06:32N 57°46' E 011°39'0 0.0
2016-May-28 05:32N 57°46' E 011°39'0 0.0
2016-May-28 04:32N 57°46' E 011°39'0 0.0
2016-May-28 03:32N 57°46' E 011°39'0 0.0
2016-May-28 02:32N 57°46' E 011°39'0 0.0
2016-May-28 01:32N 57°46' E 011°39'0 0.0
2016-May-28 00:32N 57°46' E 011°39'0 0.0
2016-May-27 23:32N 57°46' E 011°39'0 0.0
2016-May-27 22:32N 57°46' E 011°39'0 0.0
2016-May-27 21:17N 57°46' E 011°39'0 0.0
2016-May-27 20:29N 57°46' E 011°39'0 0.0
2016-May-27 19:29N 57°46' E 011°39'0 0.0
2016-May-27 18:32N 57°46' E 011°39'2 1.9
2016-May-27 17:33N 57°44' E 011°40'2 1.7
2016-May-27 16:33N 57°42' E 011°40'0 0.0
2016-May-27 15:33N 57°42' E 011°40'0 0.0
2016-May-27 14:33N 57°42' E 011°40'0 0.0
2016-May-27 13:33N 57°42' E 011°40'0 0.0
2016-May-27 12:33N 57°42' E 011°40'0 0.0
2016-May-27 11:33N 57°42' E 011°40'0 0.0
2016-May-27 10:33N 57°42' E 011°40'0 0.0
2016-May-27 09:33N 57°42' E 011°40'0 0.0
2016-May-27 08:33N 57°42' E 011°40'0 0.0
2016-May-27 07:33N 57°42' E 011°40'0 0.0
2016-May-27 06:33N 57°42' E 011°40'0 0.0
2016-May-27 05:33N 57°42' E 011°40'0 0.0
2016-May-27 04:30N 57°42' E 011°40'0 0.0
2016-May-27 03:33N 57°42' E 011°40'0 0.0
2016-May-27 02:33N 57°42' E 011°40'0 0.0
2016-May-27 01:33N 57°42' E 011°40'0 0.0
2016-May-27 00:33N 57°42' E 011°40'0 0.0
2016-May-26 23:33N 57°42' E 011°40'0 0.0
2016-May-26 22:30N 57°42' E 011°40'0 0.0
2016-May-26 21:33N 57°42' E 011°40'0 0.0
2016-May-26 20:33N 57°42' E 011°40'0 0.0
2016-May-26 19:33N 57°42' E 011°40'0 0.0
2016-May-26 18:33N 57°42' E 011°40'0 0.0
2016-May-26 17:33N 57°42' E 011°40'0 0.0
2016-May-26 16:33N 57°42' E 011°40'0 0.0
2016-May-26 15:33N 57°42' E 011°40'0 0.0
2016-May-26 14:33N 57°42' E 011°40'0 0.0
2016-May-26 13:33N 57°42' E 011°40'0 0.0
2016-May-26 12:33N 57°42' E 011°40'0 0.0
2016-May-26 11:33N 57°42' E 011°40'0 0.0
2016-May-26 10:33N 57°42' E 011°40'0 0.0
2016-May-26 09:33N 57°42' E 011°40'0 0.0
2016-May-26 08:33N 57°42' E 011°40'0 0.0
2016-May-26 07:33N 57°42' E 011°40'0 0.0
2016-May-26 06:33N 57°42' E 011°40'0 0.0
2016-May-26 05:33N 57°42' E 011°40'0 0.0
2016-May-26 04:30N 57°42' E 011°40'0 0.0
2016-May-26 03:33N 57°42' E 011°40'0 0.0
2016-May-26 02:33N 57°42' E 011°40'0 0.0
2016-May-26 01:33N 57°42' E 011°40'0 0.0
2016-May-26 00:33N 57°42' E 011°40'0 0.0
2016-May-25 23:33N 57°42' E 011°40'0 0.0
2016-May-25 22:33N 57°42' E 011°40'0 0.0
2016-May-25 21:33N 57°42' E 011°40'0 0.0
2016-May-25 20:33N 57°42' E 011°40'0 0.0
2016-May-25 19:33N 57°42' E 011°40'0 0.0
2016-May-25 18:33N 57°42' E 011°40'0 0.0
2016-May-25 17:33N 57°42' E 011°40'0 0.0
2016-May-25 16:33N 57°42' E 011°40'0 0.0
2016-May-25 15:33N 57°42' E 011°40'0 0.0
2016-May-25 14:33N 57°42' E 011°40'0 0.0
2016-May-25 13:33N 57°42' E 011°40'0 0.0
2016-May-25 12:33N 57°42' E 011°40'0 0.0
2016-May-25 11:33N 57°42' E 011°40'0 0.0
2016-May-25 10:33N 57°42' E 011°40'0 0.0
2016-May-25 09:33N 57°42' E 011°40'0 0.0
2016-May-25 08:33N 57°42' E 011°40'0 0.0
2016-May-25 07:33N 57°42' E 011°40'0 0.0
2016-May-25 06:33N 57°42' E 011°40'0 0.0
2016-May-25 05:33N 57°42' E 011°40'0 0.0
2016-May-25 04:33N 57°42' E 011°40'0 0.0
2016-May-25 03:33N 57°42' E 011°40'0 0.0
2016-May-25 02:33N 57°42' E 011°40'0 0.0
2016-May-25 01:33N 57°42' E 011°40'0 0.0
2016-May-25 00:33N 57°42' E 011°40'0 0.0
2016-May-24 23:33N 57°42' E 011°40'0 0.0
2016-May-24 22:33N 57°42' E 011°40'0 0.0
2016-May-24 21:33N 57°42' E 011°40'0 0.0
2016-May-24 20:33N 57°42' E 011°40'0 0.0
2016-May-24 19:33N 57°42' E 011°40'0 0.0
2016-May-24 18:33N 57°42' E 011°40'0 0.0
2016-May-24 17:33N 57°42' E 011°40'0 0.0
2016-May-24 16:33N 57°42' E 011°40'0 0.0
2016-May-24 15:33N 57°42' E 011°40'0 0.0
2016-May-24 14:33N 57°42' E 011°40'0 0.0
2016-May-24 13:33N 57°42' E 011°40'0 0.0
2016-May-24 12:33N 57°42' E 011°40'0 0.0
2016-May-24 11:33N 57°42' E 011°40'0 0.0
2016-May-24 10:33N 57°42' E 011°40'0 0.0
2016-May-24 09:33N 57°42' E 011°40'0 0.0
2016-May-24 08:33N 57°42' E 011°40'0 0.0
2016-May-24 07:33N 57°42' E 011°40'0 0.0
2016-May-24 06:33N 57°42' E 011°40'0 0.0
2016-May-24 05:33N 57°42' E 011°40'0 0.0
2016-May-24 04:33N 57°42' E 011°40'0 0.0
2016-May-24 03:30N 57°42' E 011°40'0 0.0
2016-May-24 02:30N 57°42' E 011°40'0 0.0
2016-May-24 01:33N 57°42' E 011°40'0 0.0
2016-May-24 00:33N 57°42' E 011°40'0 0.0
2016-May-23 23:30N 57°42' E 011°40'0 0.0
2016-May-23 22:33N 57°42' E 011°40'0 0.0
2016-May-23 21:33N 57°42' E 011°40'0 0.0
2016-May-23 20:33N 57°42' E 011°40'0 0.0
2016-May-23 19:33N 57°42' E 011°40'0 0.0
2016-May-23 18:33N 57°42' E 011°40'0 0.0
2016-May-23 17:33N 57°42' E 011°40'0 0.0
2016-May-23 16:33N 57°42' E 011°40'0 0.0
2016-May-23 15:33N 57°42' E 011°40'0 0.0
2016-May-23 14:33N 57°42' E 011°40'0 0.0
2016-May-23 13:33N 57°42' E 011°40'0 0.0
2016-May-23 12:33N 57°42' E 011°40'0 0.0
2016-May-23 11:33N 57°42' E 011°40'0 0.0
2016-May-23 10:33N 57°42' E 011°40'0 0.0
2016-May-23 09:33N 57°42' E 011°40'0 0.0
2016-May-23 08:33N 57°42' E 011°40'0 0.0
2016-May-23 07:33N 57°42' E 011°40'0 0.0
2016-May-23 06:33N 57°42' E 011°40'0 0.0
2016-May-23 05:33N 57°42' E 011°40'0 0.0
2016-May-23 04:33N 57°42' E 011°40'0 0.0
2016-May-23 03:33N 57°42' E 011°40'0 0.0
2016-May-23 02:33N 57°42' E 011°40'0 0.0
2016-May-23 01:33N 57°42' E 011°40'0 0.0
2016-May-23 00:33N 57°42' E 011°40'0 0.0
2016-May-22 23:33N 57°42' E 011°40'0 0.0
2016-May-22 22:33N 57°42' E 011°40'0 0.0
2016-May-22 21:33N 57°42' E 011°40'0 0.0
2016-May-22 20:33N 57°42' E 011°40'0 0.0
2016-May-22 19:33N 57°42' E 011°40'0 0.0
2016-May-22 18:33N 57°42' E 011°40'0 0.0
2016-May-22 17:33N 57°42' E 011°40'0 0.0
2016-May-22 16:33N 57°42' E 011°40'0 0.0
2016-May-22 15:33N 57°42' E 011°40'0 0.0
2016-May-22 14:33N 57°42' E 011°40'0 0.0
2016-May-22 13:33N 57°42' E 011°40'0 0.0
2016-May-22 12:33N 57°42' E 011°40'0 0.0
2016-May-22 11:33N 57°42' E 011°40'0 0.0
2016-May-22 10:33N 57°42' E 011°40'0 0.0
2016-May-22 09:33N 57°42' E 011°40'0 0.0
2016-May-22 08:33N 57°42' E 011°40'0 0.0
2016-May-22 07:33N 57°42' E 011°40'0 0.0
2016-May-22 06:33N 57°42' E 011°40'0 0.0
2016-May-22 05:33N 57°42' E 011°40'0 0.0
2016-May-22 04:33N 57°42' E 011°40'0 0.0
2016-May-22 03:33N 57°42' E 011°40'0 0.0
2016-May-22 02:33N 57°42' E 011°40'0 0.0
2016-May-22 01:33N 57°42' E 011°40'0 0.0
2016-May-22 00:33N 57°42' E 011°40'0 0.0
2016-May-21 23:33N 57°42' E 011°40'0 0.0
2016-May-21 22:33N 57°42' E 011°40'0 0.0
2016-May-21 21:33N 57°42' E 011°40'0 0.0
2016-May-21 20:33N 57°42' E 011°40'0 0.0
2016-May-21 19:33N 57°42' E 011°40'0 0.0
2016-May-21 18:33N 57°42' E 011°40'0 0.0
2016-May-21 17:33N 57°42' E 011°40'0 0.0
2016-May-21 16:33N 57°42' E 011°40'0 0.0
2016-May-21 15:33N 57°42' E 011°40'0 0.0
2016-May-21 14:33N 57°42' E 011°40'0 0.0
2016-May-21 13:33N 57°42' E 011°40'0 0.0
2016-May-21 12:33N 57°42' E 011°40'0 0.0
2016-May-21 11:33N 57°42' E 011°40'0 0.0
2016-May-21 10:33N 57°42' E 011°40'0 0.0
2016-May-21 09:33N 57°42' E 011°40'0 0.0
2016-May-21 08:33N 57°42' E 011°40'0 0.0
2016-May-21 07:33N 57°42' E 011°40'0 0.0
2016-May-21 06:33N 57°42' E 011°40'0 0.0
2016-May-21 05:33N 57°42' E 011°40'0 0.0
2016-May-21 04:33N 57°42' E 011°40'0 0.0
2016-May-21 03:33N 57°42' E 011°40'0 0.0
2016-May-21 02:33N 57°42' E 011°40'0 0.0
2016-May-21 01:33N 57°42' E 011°40'0 0.0
2016-May-21 00:33N 57°42' E 011°40'0 0.0
2016-May-20 23:33N 57°42' E 011°40'0 0.0
2016-May-20 22:33N 57°42' E 011°40'0 0.0
2016-May-20 21:33N 57°42' E 011°40'0 0.0
2016-May-20 20:33N 57°42' E 011°40'0 0.0
2016-May-20 19:33N 57°42' E 011°40'0 0.0
2016-May-20 18:33N 57°42' E 011°40'0 0.0
2016-May-20 17:33N 57°42' E 011°40'0 0.0
2016-May-20 16:33N 57°42' E 011°40'0 0.0
2016-May-20 15:33N 57°42' E 011°40'0 0.0
2016-May-20 14:33N 57°42' E 011°40'0 0.0
2016-May-20 13:33N 57°42' E 011°40'0 0.0
2016-May-20 12:33N 57°42' E 011°40'0 0.0
2016-May-20 11:33N 57°42' E 011°40'0 0.0
2016-May-20 10:33N 57°42' E 011°40'0 0.0
2016-May-20 09:33N 57°42' E 011°40'0 0.0
2016-May-20 08:33N 57°42' E 011°40'0 0.0
2016-May-20 07:33N 57°42' E 011°40'0 0.0
2016-May-20 06:33N 57°42' E 011°40'0 0.0
2016-May-20 05:33N 57°42' E 011°40'0 0.0
2016-May-20 04:33N 57°42' E 011°40'0 0.0
2016-May-20 03:33N 57°42' E 011°40'0 0.0
2016-May-20 02:33N 57°42' E 011°40'0 0.0
2016-May-20 01:33N 57°42' E 011°40'0 0.0
2016-May-20 00:33N 57°42' E 011°40'0 0.0
2016-May-19 23:33N 57°42' E 011°40'0 0.0
2016-May-19 22:33N 57°42' E 011°40'0 0.0
2016-May-19 21:33N 57°42' E 011°40'0 0.0
2016-May-19 20:33N 57°42' E 011°40'0 0.0
2016-May-19 19:33N 57°42' E 011°40'0 0.0
2016-May-19 18:33N 57°42' E 011°40'0 0.0
2016-May-19 17:33N 57°42' E 011°40'0 0.0
2016-May-19 16:33N 57°42' E 011°40'0 0.0
2016-May-19 15:33N 57°42' E 011°40'0 0.0
2016-May-19 14:33N 57°42' E 011°40'0 0.0
2016-May-19 13:33N 57°42' E 011°40'0 0.0
2016-May-19 12:33N 57°42' E 011°40'0 0.0
2016-May-19 11:33N 57°42' E 011°40'  
Track history (hours):
 
Tides and Currents Weather Stations Pressure Air Temp Water Temp Dewpoint Dewpoint Depression Visibility Wind Speed Wind Dir Waves Ship Positions

Falken (Sweden)

Last reported at 2016-May-29 11:33 UTC. Time now 2016-May-29 11:33 UTC.
Position N 58°04' E 011°15'.

Length 40 m; draft 4.2 m.

Type: Sailing vessel. MMSI: 265070000.

Date/timePositionNaut miles runAvg speedWind from/ knotsBaromVisibWave heightAir tempDewpointWater temp
2016-May-29 11:33N 58°04' E 011°15'4 3.9
2016-May-29 10:34N 58°01' E 011°20'7 6.7
2016-May-29 09:34N 57°57' E 011°30'5 5.3
2016-May-29 08:34N 57°55' E 011°39'1 0.6
2016-May-29 07:32N 57°55' E 011°40'0 0.0
2016-May-29 06:29N 57°55' E 011°40'0 0.0
2016-May-29 05:32N 57°55' E 011°40'0 0.0
2016-May-29 04:32N 57°55' E 011°40'0 0.0
2016-May-29 03:32N 57°55' E 011°40'0 0.0
2016-May-29 02:29N 57°55' E 011°40'0 0.0
2016-May-29 01:32N 57°55' E 011°40'0 0.0
2016-May-29 00:29N 57°55' E 011°40'0 0.0
2016-May-28 23:32N 57°55' E 011°40'0 0.0
2016-May-28 22:26N 57°55' E 011°40'0 0.0
2016-May-28 21:32N 57°55' E 011°40'0 0.0
2016-May-28 20:32N 57°55' E 011°40'0 0.0
2016-May-28 19:32N 57°55' E 011°40'0 0.0
2016-May-28 18:32N 57°55' E 011°40'0 0.0
2016-May-28 17:32N 57°55' E 011°40'0 0.0
2016-May-28 16:32N 57°55' E 011°40'0 0.0
2016-May-28 15:32N 57°55' E 011°40'3 2.9
2016-May-28 14:33N 57°55' E 011°35'4 3.9
2016-May-28 13:33N 57°52' E 011°30'7 6.5
2016-May-28 12:33N 57°45' E 011°32'4 3.8
2016-May-28 11:34N 57°46' E 011°39'0 0.0
2016-May-28 10:32N 57°46' E 011°39'0 0.0
2016-May-28 09:32N 57°46' E 011°39'0 0.0
2016-May-28 08:32N 57°46' E 011°39'0 0.0
2016-May-28 07:32N 57°46' E 011°39'0 0.0
2016-May-28 06:32N 57°46' E 011°39'0 0.0
2016-May-28 05:32N 57°46' E 011°39'0 0.0
2016-May-28 04:32N 57°46' E 011°39'0 0.0
2016-May-28 03:32N 57°46' E 011°39'0 0.0
2016-May-28 02:32N 57°46' E 011°39'0 0.0
2016-May-28 01:32N 57°46' E 011°39'0 0.0
2016-May-28 00:32N 57°46' E 011°39'0 0.0
2016-May-27 23:32N 57°46' E 011°39'0 0.0
2016-May-27 22:32N 57°46' E 011°39'0 0.0
2016-May-27 21:17N 57°46' E 011°39'0 0.0
2016-May-27 20:29N 57°46' E 011°39'0 0.0
2016-May-27 19:29N 57°46' E 011°39'0 0.0
2016-May-27 18:32N 57°46' E 011°39'2 1.9
2016-May-27 17:33N 57°44' E 011°40'2 1.7
2016-May-27 16:33N 57°42' E 011°40'0 0.0
2016-May-27 15:33N 57°42' E 011°40'0 0.0
2016-May-27 14:33N 57°42' E 011°40'0 0.0
2016-May-27 13:33N 57°42' E 011°40'0 0.0
2016-May-27 12:33N 57°42' E 011°40'0 0.0
2016-May-27 11:33N 57°42' E 011°40'0 0.0
2016-May-27 10:33N 57°42' E 011°40'0 0.0
2016-May-27 09:33N 57°42' E 011°40'0 0.0
2016-May-27 08:33N 57°42' E 011°40'0 0.0
2016-May-27 07:33N 57°42' E 011°40'0 0.0
2016-May-27 06:33N 57°42' E 011°40'0 0.0
2016-May-27 05:33N 57°42' E 011°40'0 0.0
2016-May-27 04:30N 57°42' E 011°40'0 0.0
2016-May-27 03:33N 57°42' E 011°40'0 0.0
2016-May-27 02:33N 57°42' E 011°40'0 0.0
2016-May-27 01:33N 57°42' E 011°40'0 0.0
2016-May-27 00:33N 57°42' E 011°40'0 0.0
2016-May-26 23:33N 57°42' E 011°40'0 0.0
2016-May-26 22:30N 57°42' E 011°40'0 0.0
2016-May-26 21:33N 57°42' E 011°40'0 0.0
2016-May-26 20:33N 57°42' E 011°40'0 0.0
2016-May-26 19:33N 57°42' E 011°40'0 0.0
2016-May-26 18:33N 57°42' E 011°40'0 0.0
2016-May-26 17:33N 57°42' E 011°40'0 0.0
2016-May-26 16:33N 57°42' E 011°40'0 0.0
2016-May-26 15:33N 57°42' E 011°40'0 0.0
2016-May-26 14:33N 57°42' E 011°40'0 0.0
2016-May-26 13:33N 57°42' E 011°40'0 0.0
2016-May-26 12:33N 57°42' E 011°40'0 0.0
2016-May-26 11:33N 57°42' E 011°40'0 0.0
2016-May-26 10:33N 57°42' E 011°40'0 0.0
2016-May-26 09:33N 57°42' E 011°40'0 0.0
2016-May-26 08:33N 57°42' E 011°40'0 0.0
2016-May-26 07:33N 57°42' E 011°40'0 0.0
2016-May-26 06:33N 57°42' E 011°40'0 0.0
2016-May-26 05:33N 57°42' E 011°40'0 0.0
2016-May-26 04:30N 57°42' E 011°40'0 0.0
2016-May-26 03:33N 57°42' E 011°40'0 0.0
2016-May-26 02:33N 57°42' E 011°40'0 0.0
2016-May-26 01:33N 57°42' E 011°40'0 0.0
2016-May-26 00:33N 57°42' E 011°40'0 0.0
2016-May-25 23:33N 57°42' E 011°40'0 0.0
2016-May-25 22:33N 57°42' E 011°40'0 0.0
2016-May-25 21:33N 57°42' E 011°40'0 0.0
2016-May-25 20:33N 57°42' E 011°40'0 0.0
2016-May-25 19:33N 57°42' E 011°40'0 0.0
2016-May-25 18:33N 57°42' E 011°40'0 0.0
2016-May-25 17:33N 57°42' E 011°40'0 0.0
2016-May-25 16:33N 57°42' E 011°40'0 0.0
2016-May-25 15:33N 57°42' E 011°40'0 0.0
2016-May-25 14:33N 57°42' E 011°40'0 0.0
2016-May-25 13:33N 57°42' E 011°40'0 0.0
2016-May-25 12:33N 57°42' E 011°40'0 0.0
2016-May-25 11:33N 57°42' E 011°40'0 0.0
2016-May-25 10:33N 57°42' E 011°40'0 0.0
2016-May-25 09:33N 57°42' E 011°40'0 0.0
2016-May-25 08:33N 57°42' E 011°40'0 0.0
2016-May-25 07:33N 57°42' E 011°40'0 0.0
2016-May-25 06:33N 57°42' E 011°40'0 0.0
2016-May-25 05:33N 57°42' E 011°40'0 0.0
2016-May-25 04:33N 57°42' E 011°40'0 0.0
2016-May-25 03:33N 57°42' E 011°40'0 0.0
2016-May-25 02:33N 57°42' E 011°40'0 0.0
2016-May-25 01:33N 57°42' E 011°40'0 0.0
2016-May-25 00:33N 57°42' E 011°40'0 0.0
2016-May-24 23:33N 57°42' E 011°40'0 0.0
2016-May-24 22:33N 57°42' E 011°40'0 0.0
2016-May-24 21:33N 57°42' E 011°40'0 0.0
2016-May-24 20:33N 57°42' E 011°40'0 0.0
2016-May-24 19:33N 57°42' E 011°40'0 0.0
2016-May-24 18:33N 57°42' E 011°40'0 0.0
2016-May-24 17:33N 57°42' E 011°40'0 0.0
2016-May-24 16:33N 57°42' E 011°40'0 0.0
2016-May-24 15:33N 57°42' E 011°40'0 0.0
2016-May-24 14:33N 57°42' E 011°40'0 0.0
2016-May-24 13:33N 57°42' E 011°40'0 0.0
2016-May-24 12:33N 57°42' E 011°40'0 0.0
2016-May-24 11:33N 57°42' E 011°40'0 0.0
2016-May-24 10:33N 57°42' E 011°40'0 0.0
2016-May-24 09:33N 57°42' E 011°40'0 0.0
2016-May-24 08:33N 57°42' E 011°40'0 0.0
2016-May-24 07:33N 57°42' E 011°40'0 0.0
2016-May-24 06:33N 57°42' E 011°40'0 0.0
2016-May-24 05:33N 57°42' E 011°40'0 0.0
2016-May-24 04:33N 57°42' E 011°40'0 0.0
2016-May-24 03:30N 57°42' E 011°40'0 0.0
2016-May-24 02:30N 57°42' E 011°40'0 0.0
2016-May-24 01:33N 57°42' E 011°40'0 0.0
2016-May-24 00:33N 57°42' E 011°40'0 0.0
2016-May-23 23:30N 57°42' E 011°40'0 0.0
2016-May-23 22:33N 57°42' E 011°40'0 0.0
2016-May-23 21:33N 57°42' E 011°40'0 0.0
2016-May-23 20:33N 57°42' E 011°40'0 0.0
2016-May-23 19:33N 57°42' E 011°40'0 0.0
2016-May-23 18:33N 57°42' E 011°40'0 0.0
2016-May-23 17:33N 57°42' E 011°40'0 0.0
2016-May-23 16:33N 57°42' E 011°40'0 0.0
2016-May-23 15:33N 57°42' E 011°40'0 0.0
2016-May-23 14:33N 57°42' E 011°40'0 0.0
2016-May-23 13:33N 57°42' E 011°40'0 0.0
2016-May-23 12:33N 57°42' E 011°40'0 0.0
2016-May-23 11:33N 57°42' E 011°40'0 0.0
2016-May-23 10:33N 57°42' E 011°40'0 0.0
2016-May-23 09:33N 57°42' E 011°40'0 0.0
2016-May-23 08:33N 57°42' E 011°40'0 0.0
2016-May-23 07:33N 57°42' E 011°40'0 0.0
2016-May-23 06:33N 57°42' E 011°40'0 0.0
2016-May-23 05:33N 57°42' E 011°40'0 0.0
2016-May-23 04:33N 57°42' E 011°40'0 0.0
2016-May-23 03:33N 57°42' E 011°40'0 0.0
2016-May-23 02:33N 57°42' E 011°40'0 0.0
2016-May-23 01:33N 57°42' E 011°40'0 0.0
2016-May-23 00:33N 57°42' E 011°40'0 0.0
2016-May-22 23:33N 57°42' E 011°40'0 0.0
2016-May-22 22:33N 57°42' E 011°40'0 0.0
2016-May-22 21:33N 57°42' E 011°40'0 0.0
2016-May-22 20:33N 57°42' E 011°40'0 0.0
2016-May-22 19:33N 57°42' E 011°40'0 0.0
2016-May-22 18:33N 57°42' E 011°40'0 0.0
2016-May-22 17:33N 57°42' E 011°40'0 0.0
2016-May-22 16:33N 57°42' E 011°40'0 0.0
2016-May-22 15:33N 57°42' E 011°40'0 0.0
2016-May-22 14:33N 57°42' E 011°40'0 0.0
2016-May-22 13:33N 57°42' E 011°40'0 0.0
2016-May-22 12:33N 57°42' E 011°40'0 0.0
2016-May-22 11:33N 57°42' E 011°40'0 0.0
2016-May-22 10:33N 57°42' E 011°40'0 0.0
2016-May-22 09:33N 57°42' E 011°40'0 0.0
2016-May-22 08:33N 57°42' E 011°40'0 0.0
2016-May-22 07:33N 57°42' E 011°40'0 0.0
2016-May-22 06:33N 57°42' E 011°40'0 0.0
2016-May-22 05:33N 57°42' E 011°40'0 0.0
2016-May-22 04:33N 57°42' E 011°40'0 0.0
2016-May-22 03:33N 57°42' E 011°40'0 0.0
2016-May-22 02:33N 57°42' E 011°40'0 0.0
2016-May-22 01:33N 57°42' E 011°40'0 0.0
2016-May-22 00:33N 57°42' E 011°40'0 0.0
2016-May-21 23:33N 57°42' E 011°40'0 0.0
2016-May-21 22:33N 57°42' E 011°40'0 0.0
2016-May-21 21:33N 57°42' E 011°40'0 0.0
2016-May-21 20:33N 57°42' E 011°40'0 0.0
2016-May-21 19:33N 57°42' E 011°40'0 0.0
2016-May-21 18:33N 57°42' E 011°40'0 0.0
2016-May-21 17:33N 57°42' E 011°40'0 0.0
2016-May-21 16:33N 57°42' E 011°40'0 0.0
2016-May-21 15:33N 57°42' E 011°40'0 0.0
2016-May-21 14:33N 57°42' E 011°40'0 0.0
2016-May-21 13:33N 57°42' E 011°40'0 0.0
2016-May-21 12:33N 57°42' E 011°40'0 0.0
2016-May-21 11:33N 57°42' E 011°40'0 0.0
2016-May-21 10:33N 57°42' E 011°40'0 0.0
2016-May-21 09:33N 57°42' E 011°40'0 0.0
2016-May-21 08:33N 57°42' E 011°40'0 0.0
2016-May-21 07:33N 57°42' E 011°40'0 0.0
2016-May-21 06:33N 57°42' E 011°40'0 0.0
2016-May-21 05:33N 57°42' E 011°40'0 0.0
2016-May-21 04:33N 57°42' E 011°40'0 0.0
2016-May-21 03:33N 57°42' E 011°40'0 0.0
2016-May-21 02:33N 57°42' E 011°40'0 0.0
2016-May-21 01:33N 57°42' E 011°40'0 0.0
2016-May-21 00:33N 57°42' E 011°40'0 0.0
2016-May-20 23:33N 57°42' E 011°40'0 0.0
2016-May-20 22:33N 57°42' E 011°40'0 0.0
2016-May-20 21:33N 57°42' E 011°40'0 0.0
2016-May-20 20:33N 57°42' E 011°40'0 0.0
2016-May-20 19:33N 57°42' E 011°40'0 0.0
2016-May-20 18:33N 57°42' E 011°40'0 0.0
2016-May-20 17:33N 57°42' E 011°40'0 0.0
2016-May-20 16:33N 57°42' E 011°40'0 0.0
2016-May-20 15:33N 57°42' E 011°40'0 0.0
2016-May-20 14:33N 57°42' E 011°40'0 0.0
2016-May-20 13:33N 57°42' E 011°40'0 0.0
2016-May-20 12:33N 57°42' E 011°40'0 0.0
2016-May-20 11:33N 57°42' E 011°40'0 0.0
2016-May-20 10:33N 57°42' E 011°40'0 0.0
2016-May-20 09:33N 57°42' E 011°40'0 0.0
2016-May-20 08:33N 57°42' E 011°40'0 0.0
2016-May-20 07:33N 57°42' E 011°40'0 0.0
2016-May-20 06:33N 57°42' E 011°40'0 0.0
2016-May-20 05:33N 57°42' E 011°40'0 0.0
2016-May-20 04:33N 57°42' E 011°40'0 0.0
2016-May-20 03:33N 57°42' E 011°40'0 0.0
2016-May-20 02:33N 57°42' E 011°40'0 0.0
2016-May-20 01:33N 57°42' E 011°40'0 0.0
2016-May-20 00:33N 57°42' E 011°40'0 0.0
2016-May-19 23:33N 57°42' E 011°40'0 0.0
2016-May-19 22:33N 57°42' E 011°40'0 0.0
2016-May-19 21:33N 57°42' E 011°40'0 0.0
2016-May-19 20:33N 57°42' E 011°40'0 0.0
2016-May-19 19:33N 57°42' E 011°40'0 0.0
2016-May-19 18:33N 57°42' E 011°40'0 0.0
2016-May-19 17:33N 57°42' E 011°40'0 0.0
2016-May-19 16:33N 57°42' E 011°40'0 0.0
2016-May-19 15:33N 57°42' E 011°40'0 0.0
2016-May-19 14:33N 57°42' E 011°40'0 0.0
2016-May-19 13:33N 57°42' E 011°40'0 0.0
2016-May-19 12:33N 57°42' E 011°40'0 0.0
2016-May-19 11:33N 57°42' E 011°40'  

Dump ship's entire track history